Time;durP1;ratioP1;P1;durP2;ratioP2;P2;SDS_P1;SDS_P2;PMS_P1;PMS_P2;Temp;Humidity;BMP_temperature;BMP_pressure;BME280_temperature;BME280_humidity;BME280_pressure;Samples;Min_cycle;Max_cycle;Signal;HPM_P1;HPM_P2
2023/11/29 00:02:50;;;;;;;6.03;3.95;;;;;;;;;;10520777;28;20044;-74
2023/11/29 00:08:00;;;;;;;4.68;3.78;;;;;;;;;;10511916;28;20101;-75
2023/11/29 00:13:22;;;;;;;3.92;3.45;;;;;;;;;;10520885;28;20488;-75
2023/11/29 00:18:29;;;;;;;4.10;3.35;;;;;;;;;;10545331;28;20048;-75
2023/11/29 00:23:36;;;;;;;4.45;3.90;;;;;;;;;;10539042;28;20043;-75
2023/11/29 00:29:00;;;;;;;5.65;4.82;;;;;;;;;;10509337;28;20682;-75
2023/11/29 00:34:06;;;;;;;5.85;4.38;;;;;;;;;;10528903;28;20051;-75
2023/11/29 00:39:28;;;;;;;5.22;4.22;;;;;;;;;;10528991;28;20100;-75
2023/11/29 00:44:55;;;;;;;;;;;;;;;;;;;;;
2023/11/29 00:50:09;;;;;;;8.30;5.13;;;;;;;;;;10524166;28;20093;-75
2023/11/29 00:55:22;;;;;;;5.40;4.05;;;;;;;;;;10525991;28;20220;-75
2023/11/29 01:00:35;;;;;;;6.28;4.43;;;;;;;;;;10558857;28;20126;-74
2023/11/29 01:05:51;;;;;;;6.43;4.82;;;;;;;;;;10524212;28;20048;-75
2023/11/29 01:11:23;;;;;;;7.65;5.30;;;;;;;;;;10533530;28;20062;-75
2023/11/29 01:17:01;;;;;;;6.72;4.95;;;;;;;;;;10535447;28;20051;-75
2023/11/29 01:22:44;;;;;;;6.68;4.93;;;;;;;;;;10538338;28;20492;-75
2023/11/29 01:28:25;;;;;;;5.40;4.05;;;;;;;;;;10547247;28;20056;-74
2023/11/29 01:33:49;;;;;;;;;;;;;;;;;;10555839;28;20048;-75
2023/11/29 01:39:05;;;;;;;4.07;3.42;;;;;;;;;;10525240;28;19920;-75
2023/11/29 01:44:12;;;;;;;;;;;;;;;;;;10536168;28;20074;-75
2023/11/29 01:49:18;;;;;;;;;;;;;;;;;;10539626;28;20125;-75
2023/11/29 01:54:53;;;;;;;4.45;2.83;;;;;;;;;;10530273;28;19924;-75
2023/11/29 02:00:03;;;;;;;;;;;;;;;;;;10533500;28;20100;-75
2023/11/29 02:05:14;;;;;;;3.17;2.33;;;;;;;;;;10540331;28;19920;-75
2023/11/29 02:10:18;;;;;;;3.15;2.50;;;;;;;;;;10541989;28;20044;-75
2023/11/29 02:15:43;;;;;;;3.88;3.15;;;;;;;;;;10532531;28;20048;-75
2023/11/29 02:21:06;;;;;;;2.90;2.67;;;;;;;;;;10542264;28;20044;-75
2023/11/29 02:26:42;;;;;;;2.70;2.50;;;;;;;;;;10554562;28;20040;-75
2023/11/29 02:32:14;;;;;;;;;;;;;;;;;;;;;
2023/11/29 02:38:04;;;;;;;3.70;3.00;;;;;;;;;;10529187;28;20050;-74
2023/11/29 02:43:32;;;;;;;2.63;2.20;;;;;;;;;;10540187;28;20153;-75
2023/11/29 02:48:43;;;;;;;2.70;2.40;;;;;;;;;;10537655;28;20362;-75
2023/11/29 02:53:58;;;;;;;3.17;2.10;;;;;;;;;;10549631;28;20039;-75
2023/11/29 02:59:17;;;;;;;2.40;1.98;;;;;;;;;;10533299;28;20169;-74
2023/11/29 03:04:38;;;;;;;3.60;2.90;;;;;;;;;;10525732;28;20067;-75
2023/11/29 03:09:59;;;;;;;3.47;3.00;;;;;;;;;;10516298;28;20052;-75
2023/11/29 03:15:18;;;;;;;3.45;3.08;;;;;;;;;;10538796;28;20062;-74
2023/11/29 03:21:07;;;;;;;3.80;3.00;;;;;;;;;;10524761;28;20051;-75
2023/11/29 03:26:23;;;;;;;3.20;2.60;;;;;;;;;;10553080;28;20506;-75
2023/11/29 03:31:41;;;;;;;4.50;3.20;;;;;;;;;;10514917;28;20428;-75
2023/11/29 03:36:54;;;;;;;3.90;3.15;;;;;;;;;;10520077;28;20048;-75
2023/11/29 03:42:17;;;;;;;4.25;3.60;;;;;;;;;;10542217;28;20504;-75
2023/11/29 03:47:36;;;;;;;7.30;3.97;;;;;;;;;;10547696;28;20519;-75
2023/11/29 03:52:54;;;;;;;4.78;3.85;;;;;;;;;;10513503;28;20047;-75
2023/11/29 03:58:01;;;;;;;5.78;3.95;;;;;;;;;;10500383;22;20508;-74
2023/11/29 04:03:06;;;;;;;6.93;4.75;;;;;;;;;;10487404;28;20122;-74
2023/11/29 04:08:09;;;;;;;5.32;3.95;;;;;;;;;;10484371;28;20140;-74
2023/11/29 04:13:12;;;;;;;4.90;4.03;;;;;;;;;;10490011;28;20037;-74
2023/11/29 04:18:17;;;;;;;5.43;3.95;;;;;;;;;;10483244;28;20429;-74
2023/11/29 04:23:21;;;;;;;6.13;4.47;;;;;;;;;;10481603;28;20099;-74
2023/11/29 04:28:24;;;;;;;6.78;4.63;;;;;;;;;;10467888;28;20051;-74
2023/11/29 04:33:29;;;;;;;8.57;4.90;;;;;;;;;;10475421;28;20563;-74
2023/11/29 04:38:32;;;;;;;5.47;3.97;;;;;;;;;;10457274;28;20052;-74
2023/11/29 04:43:36;;;;;;;8.85;5.68;;;;;;;;;;10491017;28;20049;-75
2023/11/29 04:48:40;;;;;;;12.70;8.60;;;;;;;;;;10461202;28;20052;-74
2023/11/29 04:53:43;;;;;;;13.43;9.48;;;;;;;;;;10464375;28;20044;-74
2023/11/29 04:58:47;;;;;;;13.90;8.90;;;;;;;;;;10483505;28;20072;-74
2023/11/29 05:03:51;;;;;;;16.15;10.88;;;;;;;;;;10474114;28;20554;-74
2023/11/29 05:08:54;;;;;;;11.68;8.60;;;;;;;;;;10484260;28;20734;-74
2023/11/29 05:13:58;;;;;;;12.07;8.85;;;;;;;;;;10486687;28;21565;-75
2023/11/29 05:19:02;;;;;;;12.02;9.10;;;;;;;;;;10483420;28;20135;-75
2023/11/29 05:24:07;;;;;;;11.52;9.10;;;;;;;;;;10487160;28;20731;-74
2023/11/29 05:29:10;;;;;;;12.52;8.75;;;;;;;;;;10483585;28;20425;-74
2023/11/29 05:34:15;;;;;;;12.80;8.43;;;;;;;;;;10486234;28;20448;-74
2023/11/29 05:39:19;;;;;;;11.48;7.97;;;;;;;;;;10488723;28;20052;-76
2023/11/29 05:44:22;;;;;;;11.30;7.40;;;;;;;;;;10490673;28;20056;-75
2023/11/29 05:49:27;;;;;;;11.85;6.88;;;;;;;;;;10488277;28;20079;-75
2023/11/29 05:54:30;;;;;;;9.20;5.53;;;;;;;;;;10482409;28;21300;-75
2023/11/29 05:59:36;;;;;;;6.32;5.13;;;;;;;;;;10490440;28;20404;-75
2023/11/29 06:04:40;;;;;;;10.68;6.88;;;;;;;;;;10480631;28;20048;-75
2023/11/29 06:09:45;;;;;;;7.90;5.95;;;;;;;;;;10491087;28;20126;-75
2023/11/29 06:14:48;;;;;;;6.40;4.68;;;;;;;;;;10477849;28;20058;-74
2023/11/29 06:19:53;;;;;;;5.45;4.30;;;;;;;;;;10486245;28;20080;-75
2023/11/29 06:24:56;;;;;;;4.68;3.58;;;;;;;;;;10484804;28;20052;-75
2023/11/29 06:29:59;;;;;;;5.45;4.35;;;;;;;;;;10491057;28;20055;-75
2023/11/29 06:35:04;;;;;;;6.97;4.35;;;;;;;;;;10490385;28;20575;-75
2023/11/29 06:40:11;;;;;;;5.57;4.13;;;;;;;;;;10471881;28;20071;-75
2023/11/29 06:45:17;;;;;;;4.72;3.88;;;;;;;;;;10495083;28;20052;-75
2023/11/29 06:50:22;;;;;;;7.43;5.40;;;;;;;;;;10489048;28;20056;-75
2023/11/29 06:55:25;;;;;;;12.88;8.38;;;;;;;;;;10489252;28;20423;-75
2023/11/29 07:00:28;;;;;;;11.48;7.40;;;;;;;;;;10486315;28;20067;-75
2023/11/29 07:05:33;;;;;;;13.07;8.07;;;;;;;;;;10484497;28;20050;-75
2023/11/29 07:10:36;;;;;;;10.50;7.10;;;;;;;;;;10488067;28;20041;-75
2023/11/29 07:15:40;;;;;;;9.82;7.47;;;;;;;;;;10488659;28;20143;-75
2023/11/29 07:20:44;;;;;;;12.00;7.53;;;;;;;;;;10494696;28;20037;-75
2023/11/29 07:25:47;;;;;;;8.90;6.75;;;;;;;;;;10496052;28;20088;-75
2023/11/29 07:30:51;;;;;;;11.60;7.20;;;;;;;;;;10492764;28;20074;-75
2023/11/29 07:35:55;;;;;;;7.57;6.00;;;;;;;;;;10483687;28;20050;-75
2023/11/29 07:40:58;;;;;;;7.43;5.38;;;;;;;;;;10495072;28;20509;-75
2023/11/29 07:46:03;;;;;;;8.77;6.82;;;;;;;;;;10488570;28;20048;-75
2023/11/29 07:51:09;;;;;;;11.40;8.07;;;;;;;;;;10492741;28;20535;-75
2023/11/29 07:56:12;;;;;;;9.50;7.30;;;;;;;;;;10491300;28;20052;-75
2023/11/29 08:01:15;;;;;;;10.75;7.65;;;;;;;;;;10485161;28;20041;-76
2023/11/29 08:06:21;;;;;;;10.05;7.30;;;;;;;;;;10483413;28;20094;-76
2023/11/29 08:11:24;;;;;;;12.05;7.70;;;;;;;;;;10479601;28;20498;-76
2023/11/29 08:16:28;;;;;;;9.30;6.72;;;;;;;;;;10478306;28;20056;-76
2023/11/29 08:21:33;;;;;;;10.23;7.28;;;;;;;;;;10487498;28;20048;-76
2023/11/29 08:26:36;;;;;;;9.63;7.00;;;;;;;;;;10488964;28;20482;-76
2023/11/29 08:31:40;;;;;;;6.53;4.75;;;;;;;;;;10489779;28;20072;-76
2023/11/29 08:36:45;;;;;;;7.90;5.85;;;;;;;;;;10492854;28;20049;-76
2023/11/29 08:41:48;;;;;;;6.28;4.70;;;;;;;;;;10481696;28;20049;-76
2023/11/29 08:46:52;;;;;;;6.95;5.07;;;;;;;;;;10483365;28;20073;-77
2023/11/29 08:51:57;;;;;;;6.70;4.75;;;;;;;;;;10497327;28;20044;-76
2023/11/29 08:57:00;;;;;;;6.18;4.70;;;;;;;;;;10487124;28;20063;-77
2023/11/29 09:02:04;;;;;;;6.97;4.57;;;;;;;;;;10486540;28;20060;-77
2023/11/29 09:07:08;;;;;;;6.85;5.10;;;;;;;;;;10482118;28;20087;-77
2023/11/29 09:12:12;;;;;;;6.10;4.13;;;;;;;;;;10486611;28;20137;-77
2023/11/29 09:17:17;;;;;;;7.90;4.72;;;;;;;;;;10490836;28;20718;-77
2023/11/29 09:22:22;;;;;;;6.22;4.75;;;;;;;;;;10493328;28;20044;-77
2023/11/29 09:27:26;;;;;;;6.63;4.93;;;;;;;;;;10496170;28;20424;-77
2023/11/29 09:32:32;;;;;;;6.07;4.60;;;;;;;;;;10487513;28;20063;-77
2023/11/29 09:37:36;;;;;;;;;;;;;;;;;;10495960;28;20080;-77
2023/11/29 09:42:40;;;;;;;6.75;4.82;;;;;;;;;;10479532;28;20007;-78
2023/11/29 09:47:43;;;;;;;7.35;4.18;;;;;;;;;;10490481;28;20793;-77
2023/11/29 09:52:49;;;;;;;7.00;4.43;;;;;;;;;;10480871;28;20094;-77
2023/11/29 09:57:53;;;;;;;4.90;3.75;;;;;;;;;;10425824;22;20050;-78
2023/11/29 10:02:56;;;;;;;6.85;3.90;;;;;;;;;;10295158;28;20043;-77
2023/11/29 10:08:02;;;;;;;5.50;4.28;;;;;;;;;;10301988;28;20466;-77
2023/11/29 10:13:06;;;;;;;4.85;4.13;;;;;;;;;;10291140;28;20070;-77
2023/11/29 10:18:11;;;;;;;6.45;4.88;;;;;;;;;;10301260;28;20055;-77
2023/11/29 10:23:16;;;;;;;7.73;4.27;;;;;;;;;;10300182;28;20047;-77
2023/11/29 10:28:19;;;;;;;6.03;4.03;;;;;;;;;;10302498;28;20043;-77
2023/11/29 10:33:23;;;;;;;5.28;4.25;;;;;;;;;;10285153;28;20058;-77
2023/11/29 10:38:30;;;;;;;5.88;4.15;;;;;;;;;;10316677;28;20058;-77
2023/11/29 10:43:34;;;;;;;;;;;;;;;;;;10365213;28;20140;-77
2023/11/29 10:48:40;;;;;;;6.95;4.72;;;;;;;;;;10350799;28;20397;-77
2023/11/29 10:53:48;;;;;;;5.72;4.30;;;;;;;;;;10282028;28;20042;-76
2023/11/29 10:59:05;;;;;;;5.78;4.65;;;;;;;;;;10315927;28;20103;-76
2023/11/29 11:04:10;;;;;;;6.10;4.38;;;;;;;;;;10331840;28;20364;-76
2023/11/29 11:09:36;;;;;;;4.97;3.80;;;;;;;;;;10309895;28;20058;-76
2023/11/29 11:14:48;;;;;;;5.15;3.92;;;;;;;;;;10290478;28;20048;-76
2023/11/29 11:19:52;;;;;;;5.40;4.50;;;;;;;;;;10341991;28;20142;-76
2023/11/29 11:25:17;;;;;;;5.25;4.10;;;;;;;;;;10332616;28;20047;-76
2023/11/29 11:30:30;;;;;;;5.38;3.92;;;;;;;;;;10331353;28;20050;-76
2023/11/29 11:35:37;;;;;;;5.10;3.83;;;;;;;;;;10295447;28;20043;-76
2023/11/29 11:40:42;;;;;;;6.35;4.38;;;;;;;;;;10298381;28;20051;-76
2023/11/29 11:45:49;;;;;;;5.13;3.33;;;;;;;;;;10292122;28;20046;-76
2023/11/29 11:50:55;;;;;;;4.80;3.70;;;;;;;;;;10334291;28;20161;-76
2023/11/29 11:56:01;;;;;;;6.22;4.22;;;;;;;;;;10330949;28;20043;-77
2023/11/29 12:01:04;;;;;;;6.38;4.03;;;;;;;;;;10281521;28;20057;-75
2023/11/29 12:06:17;;;;;;;5.20;3.90;;;;;;;;;;10316728;28;20478;-76
2023/11/29 12:11:30;;;;;;;8.48;4.20;;;;;;;;;;10310300;28;20089;-75
2023/11/29 12:16:33;;;;;;;6.35;4.30;;;;;;;;;;10318802;28;20139;-76
2023/11/29 12:21:37;;;;;;;5.07;3.40;;;;;;;;;;10293952;28;20050;-75
2023/11/29 12:26:42;;;;;;;5.20;3.63;;;;;;;;;;10320374;28;20092;-75
2023/11/29 12:31:45;;;;;;;5.50;3.80;;;;;;;;;;10326285;28;20045;-75
2023/11/29 12:36:48;;;;;;;5.38;3.67;;;;;;;;;;10341061;28;20055;-75
2023/11/29 12:41:53;;;;;;;5.05;3.28;;;;;;;;;;10315157;28;20756;-75
2023/11/29 12:46:57;;;;;;;5.55;3.80;;;;;;;;;;10352830;28;20044;-75
2023/11/29 12:52:01;;;;;;;5.35;3.72;;;;;;;;;;10280416;28;20065;-75
2023/11/29 12:57:06;;;;;;;8.27;4.05;;;;;;;;;;10298958;28;20039;-75
2023/11/29 13:02:10;;;;;;;6.15;3.58;;;;;;;;;;10305441;28;20040;-74
2023/11/29 13:07:15;;;;;;;4.90;3.70;;;;;;;;;;10303266;28;20035;-75
2023/11/29 13:12:19;;;;;;;5.20;4.00;;;;;;;;;;10338162;28;20101;-75
2023/11/29 13:17:24;;;;;;;;;;;;;;;;;;10322434;28;20062;-75
2023/11/29 13:22:28;;;;;;;6.13;4.10;;;;;;;;;;10289480;28;19933;-75
2023/11/29 13:27:33;;;;;;;6.97;4.25;;;;;;;;;;10295549;28;20050;-75
2023/11/29 13:32:39;;;;;;;7.93;4.80;;;;;;;;;;10295801;28;20426;-76
2023/11/29 13:37:42;;;;;;;;;;;;;;;;;;10293908;28;20081;-75
2023/11/29 13:42:47;;;;;;;6.53;4.72;;;;;;;;;;10312223;28;19925;-75
2023/11/29 13:47:51;;;;;;;6.13;4.13;;;;;;;;;;10297759;28;20047;-75
2023/11/29 13:52:54;;;;;;;6.20;4.45;;;;;;;;;;10288313;28;20051;-75
2023/11/29 13:57:59;;;;;;;6.43;3.97;;;;;;;;;;10305436;28;20495;-75
2023/11/29 14:03:06;;;;;;;;;;;;;;;;;;10299028;28;20518;-75
2023/11/29 14:08:09;;;;;;;6.93;5.10;;;;;;;;;;10305069;28;20338;-75
2023/11/29 14:13:14;;;;;;;9.32;5.32;;;;;;;;;;10289015;28;20247;-75
2023/11/29 14:18:17;;;;;;;6.03;4.38;;;;;;;;;;10290386;28;20043;-75
2023/11/29 14:23:22;;;;;;;6.35;4.30;;;;;;;;;;10288960;28;20050;-75
2023/11/29 14:28:32;;;;;;;5.75;3.45;;;;;;;;;;10310922;28;20491;-75
2023/11/29 14:33:36;;;;;;;6.20;4.22;;;;;;;;;;10307793;28;20044;-75
2023/11/29 14:38:39;;;;;;;5.43;3.92;;;;;;;;;;10296854;28;20609;-75
2023/11/29 14:43:45;;;;;;;4.53;3.50;;;;;;;;;;10295656;28;20134;-75
2023/11/29 14:48:48;;;;;;;4.77;4.17;;;;;;;;;;10313375;28;20050;-75
2023/11/29 14:53:52;;;;;;;4.70;3.67;;;;;;;;;;10310645;28;20100;-75
2023/11/29 14:58:57;;;;;;;4.50;3.67;;;;;;;;;;10297387;28;20127;-75
2023/11/29 15:04:01;;;;;;;7.40;4.83;;;;;;;;;;10297465;28;20488;-75
2023/11/29 15:09:04;;;;;;;6.53;4.90;;;;;;;;;;10301602;28;20101;-75
2023/11/29 15:14:09;;;;;;;5.38;3.70;;;;;;;;;;10289555;28;20070;-75
2023/11/29 15:19:13;;;;;;;5.72;4.32;;;;;;;;;;10301465;28;20447;-75
2023/11/29 15:24:16;;;;;;;3.60;3.20;;;;;;;;;;10276111;28;20071;-75
2023/11/29 15:29:21;;;;;;;7.60;4.20;;;;;;;;;;10286027;28;20059;-75
2023/11/29 15:34:25;;;;;;;6.95;4.13;;;;;;;;;;10274411;28;20047;-75
2023/11/29 15:39:29;;;;;;;5.07;3.53;;;;;;;;;;10300453;28;20051;-75
2023/11/29 15:44:34;;;;;;;6.55;3.97;;;;;;;;;;10349627;28;20065;-75
2023/11/29 15:49:37;;;;;;;3.72;3.03;;;;;;;;;;10310265;28;20051;-75
2023/11/29 15:54:41;;;;;;;6.68;4.18;;;;;;;;;;10276577;28;20128;-74
2023/11/29 15:59:45;;;;;;;6.85;4.70;;;;;;;;;;10374054;23;20063;-73
2023/11/29 16:04:49;;;;;;;5.07;4.05;;;;;;;;;;10314927;28;20077;-73
2023/11/29 16:09:52;;;;;;;6.03;4.30;;;;;;;;;;10334547;28;22325;-73
2023/11/29 16:14:57;;;;;;;3.95;2.65;;;;;;;;;;10338382;28;20074;-73
2023/11/29 16:20:01;;;;;;;3.45;2.65;;;;;;;;;;10333108;28;20118;-73
2023/11/29 16:25:05;;;;;;;3.38;2.60;;;;;;;;;;10310459;28;20053;-73
2023/11/29 16:30:10;;;;;;;4.55;3.60;;;;;;;;;;10334144;28;20053;-73
2023/11/29 16:35:14;;;;;;;5.50;3.80;;;;;;;;;;10329574;28;20441;-73
2023/11/29 16:40:19;;;;;;;4.90;3.40;;;;;;;;;;10373421;28;20522;-73
2023/11/29 16:45:24;;;;;;;4.20;2.80;;;;;;;;;;10360218;28;20058;-73
2023/11/29 16:50:28;;;;;;;3.83;2.42;;;;;;;;;;10326998;28;20054;-73
2023/11/29 16:55:31;;;;;;;2.58;2.20;;;;;;;;;;10332151;28;20054;-73
2023/11/29 17:00:36;;;;;;;2.22;1.90;;;;;;;;;;10336022;28;20492;-73
2023/11/29 17:05:39;;;;;;;2.50;1.95;;;;;;;;;;10326424;28;20584;-73
2023/11/29 17:10:43;;;;;;;3.72;2.00;;;;;;;;;;10336321;28;20085;-73
2023/11/29 17:15:47;;;;;;;2.00;1.73;;;;;;;;;;10327910;28;20053;-73
2023/11/29 17:20:51;;;;;;;2.72;2.03;;;;;;;;;;10334233;28;20050;-73
2023/11/29 17:25:54;;;;;;;3.83;2.70;;;;;;;;;;10328274;28;20422;-73
2023/11/29 17:30:58;;;;;;;3.40;2.28;;;;;;;;;;10325589;28;20054;-73
2023/11/29 17:36:02;;;;;;;3.90;2.85;;;;;;;;;;10325415;28;20499;-73
2023/11/29 17:41:06;;;;;;;5.22;1.83;;;;;;;;;;10331744;28;20120;-73
2023/11/29 17:46:10;;;;;;;2.03;1.80;;;;;;;;;;10340000;28;20054;-73
2023/11/29 17:51:13;;;;;;;2.78;1.73;;;;;;;;;;10335548;28;20501;-73
2023/11/29 17:56:17;;;;;;;2.85;2.00;;;;;;;;;;10335596;28;20188;-73
2023/11/29 18:01:24;;;;;;;2.40;2.00;;;;;;;;;;10356706;28;20069;-73
2023/11/29 18:06:27;;;;;;;2.53;2.22;;;;;;;;;;10376013;28;20054;-73
2023/11/29 18:11:32;;;;;;;2.33;2.10;;;;;;;;;;10362969;28;20132;-73
2023/11/29 18:16:37;;;;;;;2.50;1.90;;;;;;;;;;10380472;28;20127;-73
2023/11/29 18:21:40;;;;;;;3.42;2.33;;;;;;;;;;10389664;28;20071;-73
2023/11/29 18:26:45;;;;;;;3.30;2.55;;;;;;;;;;10380399;28;20050;-73
2023/11/29 18:31:51;;;;;;;3.38;2.72;;;;;;;;;;10368752;28;20046;-73
2023/11/29 18:36:55;;;;;;;6.80;3.83;;;;;;;;;;10380493;28;20171;-73
2023/11/29 18:41:58;;;;;;;3.22;2.47;;;;;;;;;;10384181;28;20050;-73
2023/11/29 18:47:02;;;;;;;4.18;3.40;;;;;;;;;;10366760;28;20122;-73
2023/11/29 18:52:06;;;;;;;5.50;4.32;;;;;;;;;;10359765;28;20510;-73
2023/11/29 18:57:09;;;;;;;4.53;3.70;;;;;;;;;;10369187;28;20076;-73
2023/11/29 19:02:14;;;;;;;5.30;3.38;;;;;;;;;;10342080;28;20117;-73
2023/11/29 19:07:17;;;;;;;3.45;2.97;;;;;;;;;;10334677;28;20053;-73
2023/11/29 19:12:23;;;;;;;3.10;2.60;;;;;;;;;;10328017;28;20414;-73
2023/11/29 19:17:28;;;;;;;3.27;2.40;;;;;;;;;;10332432;28;20050;-73
2023/11/29 19:22:31;;;;;;;2.72;2.40;;;;;;;;;;10333794;28;20153;-73
2023/11/29 19:27:35;;;;;;;2.45;2.20;;;;;;;;;;10328177;28;20051;-73
2023/11/29 19:32:40;;;;;;;3.75;2.60;;;;;;;;;;10327322;28;20050;-73
2023/11/29 19:37:43;;;;;;;1.95;1.70;;;;;;;;;;10330718;28;20078;-73
2023/11/29 19:42:46;;;;;;;3.33;2.60;;;;;;;;;;10326295;28;20077;-73
2023/11/29 19:47:51;;;;;;;2.75;2.28;;;;;;;;;;10325871;28;20049;-73
2023/11/29 19:52:54;;;;;;;2.85;2.30;;;;;;;;;;10324960;28;20062;-73
2023/11/29 19:57:58;;;;;;;2.30;1.98;;;;;;;;;;10325184;28;20150;-73
2023/11/29 20:03:23;;;;;;;3.20;2.72;;;;;;;;;;10322970;28;20050;-73
2023/11/29 20:08:27;;;;;;;3.08;2.67;;;;;;;;;;10324131;28;20475;-73
2023/11/29 20:13:30;;;;;;;2.80;2.42;;;;;;;;;;10325842;28;20081;-73
2023/11/29 20:18:36;;;;;;;4.43;3.17;;;;;;;;;;10322021;28;20453;-73
2023/11/29 20:23:40;;;;;;;5.75;3.70;;;;;;;;;;10320796;28;20503;-73
2023/11/29 20:28:43;;;;;;;5.25;3.00;;;;;;;;;;10311781;28;20077;-73
2023/11/29 20:33:48;;;;;;;3.42;2.72;;;;;;;;;;10323237;28;20042;-73
2023/11/29 20:38:51;;;;;;;3.83;2.90;;;;;;;;;;10320492;28;20411;-73
2023/11/29 20:43:55;;;;;;;5.00;3.10;;;;;;;;;;10313622;28;20054;-73
2023/11/29 20:48:59;;;;;;;4.45;3.10;;;;;;;;;;10324331;28;20043;-73
2023/11/29 20:54:03;;;;;;;3.60;3.05;;;;;;;;;;10331598;28;20137;-73
2023/11/29 20:59:06;;;;;;;6.13;3.30;;;;;;;;;;10328164;28;20063;-73
2023/11/29 21:04:11;;;;;;;8.32;5.07;;;;;;;;;;10327077;28;20083;-74
2023/11/29 21:09:14;;;;;;;7.78;5.20;;;;;;;;;;10329084;28;20514;-73
2023/11/29 21:14:18;;;;;;;8.93;5.22;;;;;;;;;;10315882;28;20181;-73
2023/11/29 21:19:22;;;;;;;9.32;4.82;;;;;;;;;;10342263;28;20054;-73
2023/11/29 21:24:26;;;;;;;10.10;5.38;;;;;;;;;;10325025;28;20054;-73
2023/11/29 21:29:29;;;;;;;9.02;5.03;;;;;;;;;;10320932;28;20628;-73
2023/11/29 21:34:33;;;;;;;6.95;4.03;;;;;;;;;;10330137;28;20107;-73
2023/11/29 21:39:37;;;;;;;4.90;3.08;;;;;;;;;;10316907;28;20037;-73
2023/11/29 21:44:41;;;;;;;6.25;3.75;;;;;;;;;;10338078;28;20564;-73
2023/11/29 21:49:45;;;;;;;7.10;4.45;;;;;;;;;;10330960;28;20491;-73
2023/11/29 21:54:48;;;;;;;6.50;4.15;;;;;;;;;;10330836;28;20514;-73
2023/11/29 21:59:52;;;;;;;6.80;4.13;;;;;;;;;;10338025;28;20047;-73
2023/11/29 22:04:56;;;;;;;6.47;4.35;;;;;;;;;;10326448;28;20053;-73
2023/11/29 22:09:59;;;;;;;4.28;3.30;;;;;;;;;;10336942;28;20045;-73
2023/11/29 22:15:03;;;;;;;6.65;4.22;;;;;;;;;;10342514;28;20085;-73
2023/11/29 22:20:10;;;;;;;5.57;3.78;;;;;;;;;;10349789;28;20359;-73
2023/11/29 22:25:13;;;;;;;5.93;4.10;;;;;;;;;;10340834;28;20494;-73
2023/11/29 22:30:17;;;;;;;4.70;3.30;;;;;;;;;;10341483;28;20138;-73
2023/11/29 22:35:21;;;;;;;5.03;3.25;;;;;;;;;;10349531;28;20052;-73
2023/11/29 22:40:25;;;;;;;5.20;3.47;;;;;;;;;;10355838;28;20617;-73
2023/11/29 22:45:28;;;;;;;5.85;3.45;;;;;;;;;;10363600;28;20048;-73
2023/11/29 22:50:32;;;;;;;5.68;3.25;;;;;;;;;;10393604;28;20048;-73
2023/11/29 22:55:35;;;;;;;5.57;2.75;;;;;;;;;;10335302;28;20057;-73
2023/11/29 23:00:39;;;;;;;3.40;2.67;;;;;;;;;;10345000;28;20030;-73
2023/11/29 23:05:44;;;;;;;3.63;2.80;;;;;;;;;;10369974;28;20060;-73
2023/11/29 23:10:47;;;;;;;4.95;2.80;;;;;;;;;;10375399;28;20559;-73
2023/11/29 23:15:50;;;;;;;5.20;3.28;;;;;;;;;;10372342;28;20042;-73
2023/11/29 23:20:55;;;;;;;6.05;3.10;;;;;;;;;;10376527;28;20048;-73
2023/11/29 23:25:58;;;;;;;4.32;2.85;;;;;;;;;;10384824;28;20042;-73
2023/11/29 23:31:02;;;;;;;4.70;3.20;;;;;;;;;;10372389;28;20054;-73
2023/11/29 23:36:07;;;;;;;4.45;3.22;;;;;;;;;;10358017;28;20123;-73
2023/11/29 23:41:14;;;;;;;3.90;2.80;;;;;;;;;;10384445;28;20125;-73
2023/11/29 23:46:18;;;;;;;3.47;2.78;;;;;;;;;;10361458;28;20045;-74
2023/11/29 23:51:22;;;;;;;3.28;2.63;;;;;;;;;;10336175;28;20050;-73
2023/11/29 23:56:26;;;;;;;3.38;2.67;;;;;;;;;;10371933;28;20118;-73
